Time;durP1;ratioP1;P1;durP2;ratioP2;P2;SDS_P1;SDS_P2;PMS_P1;PMS_P2;Temp;Humidity;BMP_temperature;BMP_pressure;BME280_temperature;BME280_humidity;BME280_pressure;Samples;Min_cycle;Max_cycle;Signal;HPM_P1;HPM_P2
2023/07/21 00:00:35;;;;;;;;;9.67;9.67;;;;;17.52;85.01;99273.19;6278860;20;2772217;-48
2023/07/21 00:03:05;;;;;;;;;9.80;8.00;;;;;17.38;84.89;99273.66;6336869;20;2751567;-50
2023/07/21 00:05:32;;;;;;;;;8.00;7.00;;;;;17.44;85.01;99275.78;6277949;20;2739960;-50
2023/07/21 00:08:03;;;;;;;;;9.00;9.00;;;;;17.50;85.24;99277.91;6322801;20;3472115;-54
2023/07/21 00:10:31;;;;;;;;;12.00;9.00;;;;;17.44;85.98;99283.94;6315143;20;2766954;-47
2023/07/21 00:13:00;;;;;;;;;10.60;10.60;;;;;17.43;86.31;99276.78;6303650;20;2778415;-49
2023/07/21 00:15:27;;;;;;;;;10.00;8.50;;;;;17.95;83.42;99269.00;6280779;20;2772185;-50
2023/07/21 00:17:55;;;;;;;;;10.00;9.00;;;;;17.91;82.62;99259.47;6279231;20;2773253;-49
2023/07/21 00:20:25;;;;;;;;;10.00;9.00;;;;;17.81;82.68;99266.81;6309019;20;2761723;-48
2023/07/21 00:22:53;;;;;;;;;9.00;9.00;;;;;18.27;81.14;99265.78;6309443;20;2761872;-51
2023/07/21 00:25:21;;;;;;;;;8.50;8.50;;;;;17.96;82.18;99266.16;6312170;20;2757691;-50
2023/07/21 00:27:50;;;;;;;;;8.20;8.20;;;;;17.88;83.21;99266.06;6302945;20;2745074;-49
2023/07/21 00:30:19;;;;;;;;;9.33;9.33;;;;;17.89;83.50;99258.75;6309059;20;3488840;-51
2023/07/21 00:32:48;;;;;;;;;10.80;8.00;;;;;17.92;83.39;99267.44;6332638;20;2762805;-48
2023/07/21 00:35:17;;;;;;;;;9.20;8.40;;;;;17.75;83.51;99263.66;6306211;20;2763863;-51
2023/07/21 00:37:46;;;;;;;;;10.00;9.00;;;;;17.61;85.87;99264.13;6277783;20;2768030;-47
2023/07/21 00:40:19;;;;;;;;;9.60;8.00;;;;;17.39;86.36;99256.38;6335648;20;2768037;-50
2023/07/21 00:42:50;;;;;;;;;9.43;9.43;;;;;17.23;87.26;99260.56;6321930;20;3503380;-48
2023/07/21 00:45:19;;;;;;;;;8.60;8.60;;;;;17.08;87.54;99251.19;6333474;20;2750237;-51
2023/07/21 00:47:48;;;;;;;;;9.60;9.60;;;;;17.42;86.52;99256.94;6302381;20;2789851;-48
2023/07/21 00:50:17;;;;;;;;;10.67;8.67;;;;;17.06;86.86;99261.31;6272802;20;2775331;-52
2023/07/21 00:52:46;;;;;;;;;9.00;8.80;;;;;17.27;85.47;99256.56;6334619;20;2757750;-52
2023/07/21 00:55:15;;;;;;;;;8.50;8.00;;;;;16.72;86.62;99261.81;6304323;20;2737830;-54
2023/07/21 00:57:44;;;;;;;;;10.00;9.33;;;;;16.76;86.79;99257.78;6303344;20;2770154;-55
2023/07/21 01:00:13;;;;;;;;;7.40;7.40;;;;;16.86;87.33;99253.25;6332256;20;2748180;-54
2023/07/21 01:02:41;;;;;;;;;10.00;9.00;;;;;16.44;87.50;99245.38;6306264;20;3379441;-55
2023/07/21 01:05:09;;;;;;;;;10.00;9.00;;;;;16.76;86.70;99248.78;6302933;20;2761849;-47
2023/07/21 01:07:39;;;;;;;;;7.00;7.00;;;;;17.29;83.93;99248.28;6278680;20;2746301;-46
2023/07/21 01:10:09;;;;;;;;;8.80;8.80;;;;;17.37;83.73;99252.97;6299831;20;2748213;-47
2023/07/21 01:12:37;;;;;;;;;9.50;8.00;;;;;17.26;83.91;99254.84;6308377;20;2747287;-54
2023/07/21 01:15:06;;;;;;;;;9.00;9.00;;;;;17.27;83.72;99250.28;6275284;20;2738973;-53
2023/07/21 01:17:35;;;;;;;;;10.40;9.20;;;;;16.95;85.72;99246.06;6330475;20;2778435;-54
2023/07/21 01:20:09;;;;;;;;;11.50;10.00;;;;;17.23;84.49;99248.88;6280981;20;2789909;-50
2023/07/21 01:22:47;;;;;;;;;9.00;9.00;;;;;17.20;83.85;99243.75;6279238;20;2744078;-52
2023/07/21 01:25:17;;;;;;;;;8.60;8.60;;;;;17.18;83.99;99246.59;6299651;20;2744068;-51
2023/07/21 01:27:49;;;;;;;;;9.00;8.00;;;;;17.40;83.47;99249.94;6316146;20;2632542;-50
2023/07/21 01:30:20;;;;;;;;;8.00;8.00;;;;;17.45;83.40;99244.91;6307169;20;2752385;-52
2023/07/21 01:32:50;;;;;;;;;9.00;9.00;;;;;17.62;82.17;99249.56;6287096;20;2740947;-53
2023/07/21 01:35:20;;;;;;;;;10.40;10.40;;;;;17.58;82.18;99256.28;6309116;20;2778409;-49
2023/07/21 01:37:49;;;;;;;;;7.00;7.00;;;;;17.40;83.26;99249.94;6309770;20;2752348;-53
2023/07/21 01:40:19;;;;;;;;;10.20;8.80;;;;;17.45;82.97;99253.06;6337224;20;2773184;-48
2023/07/21 01:42:47;;;;;;;;;8.50;8.50;;;;;17.28;83.15;99258.28;6286692;20;2750453;-52
2023/07/21 01:45:16;;;;;;;;;9.00;8.60;;;;;17.20;83.48;99249.16;6308968;20;2755606;-47
2023/07/21 01:47:48;;;;;;;;;10.60;9.20;;;;;17.29;83.76;99249.13;6307264;20;2780663;-54
2023/07/21 01:50:18;;;;;;;;;9.00;7.00;;;;;17.40;83.27;99255.38;6292188;20;2748391;-51
2023/07/21 01:52:48;;;;;;;;;9.40;9.40;;;;;17.40;83.08;99249.94;6306191;20;2761845;-50
2023/07/21 01:55:23;;;;;;;;;9.00;9.00;;;;;17.41;83.16;99252.53;6278905;20;2764952;-49
2023/07/21 01:57:57;;;;;;;;;9.00;8.00;;;;;17.38;83.46;99251.94;6284723;20;2753582;-52
2023/07/21 02:00:33;;;;;;;;;10.00;10.00;;;;;17.37;83.79;99237.53;6283088;20;2793108;-49
2023/07/21 02:03:18;;;;;;;;;12.00;12.00;;;;;17.40;83.29;99249.94;6277007;20;3522387;-52
2023/07/21 02:05:48;;;;;;;;;9.00;9.00;;;;;17.71;82.67;99245.09;6275206;20;2767590;-51
2023/07/21 02:08:20;;;;;;;;;9.20;9.00;;;;;17.59;82.67;99255.31;6337587;20;2749428;-55
2023/07/21 02:10:48;;;;;;;;;8.50;8.50;;;;;17.58;82.94;99261.72;6287511;20;2751420;-52
2023/07/21 02:13:16;;;;;;;;;10.00;10.00;;;;;17.41;83.38;99257.94;6278998;20;2781639;-49
2023/07/21 02:15:44;;;;;;;;;11.67;8.33;;;;;17.40;83.46;99253.50;6313766;20;2774196;-52
2023/07/21 02:18:11;;;;;;;;;8.00;8.00;;;;;17.64;82.41;99266.56;6322997;20;2740893;-49
2023/07/21 02:20:39;;;;;;;;;9.50;9.50;;;;;17.60;83.12;99262.44;6283068;20;2769219;-52
2023/07/21 02:23:07;;;;;;;;;11.00;10.67;;;;;17.63;83.64;99267.56;6282261;20;2796356;-53
2023/07/21 02:25:35;;;;;;;;;10.00;9.00;;;;;17.93;81.16;99262.84;6312609;20;3496121;-50
2023/07/21 02:28:03;;;;;;;;;10.00;10.00;;;;;17.89;81.72;99256.03;6312653;20;2796444;-54
2023/07/21 02:30:31;;;;;;;;;9.50;9.00;;;;;18.06;80.91;99268.81;6320177;20;2758722;-48
2023/07/21 02:33:00;;;;;;;;;10.40;10.40;;;;;17.96;80.54;99279.72;6306832;20;2795068;-49
2023/07/21 02:35:28;;;;;;;;;9.00;9.00;;;;;17.96;82.02;99276.16;6281085;20;2756625;-51
2023/07/21 02:38:00;;;;;;;;;9.67;9.67;;;;;18.11;81.46;99276.47;6309401;20;2777425;-49
2023/07/21 02:40:27;;;;;;;;;12.00;10.50;;;;;18.19;81.06;99279.28;6315532;20;2792001;-55
2023/07/21 02:42:57;;;;;;;;;10.00;10.00;;;;;18.02;82.33;99280.97;6307382;20;2792103;-54
2023/07/21 02:45:26;;;;;;;;;10.60;10.60;;;;;18.02;82.67;99283.69;6306246;20;2788961;-53
2023/07/21 02:47:54;;;;;;;;;10.00;10.00;;;;;17.93;82.62;99281.88;6283188;20;2789091;-53
2023/07/21 02:50:25;;;;;;;;;11.60;10.00;;;;;18.19;80.30;99285.59;6336226;20;2787777;-50
2023/07/21 02:52:54;;;;;;;;;10.00;10.00;;;;;17.94;81.14;99287.16;6281739;20;2796189;-53
2023/07/21 02:55:25;;;;;;;;;10.50;9.00;;;;;17.77;83.71;99288.81;6321636;20;2474246;-48
2023/07/21 02:57:53;;;;;;;;;8.50;8.50;;;;;17.96;84.03;99289.75;6319736;20;2754526;-51
2023/07/21 03:00:20;;;;;;;;;11.50;11.00;;;;;18.10;83.29;99291.94;6284505;20;2785958;-49
2023/07/21 03:02:48;;;;;;;;;11.33;11.00;;;;;18.06;82.97;99295.97;6280247;20;2789980;-54
2023/07/21 03:05:17;;;;;;;;;11.20;9.40;;;;;18.04;81.94;99292.56;6336360;20;2767009;-54
2023/07/21 03:07:44;;;;;;;;;11.00;11.00;;;;;18.27;80.67;99292.09;6284138;20;2789935;-49
2023/07/21 03:10:16;;;;;;;;;10.20;8.60;;;;;18.27;80.21;99295.69;6307476;20;2781680;-53
2023/07/21 03:12:43;;;;;;;;;14.00;12.00;;;;;18.25;80.92;99299.59;6285532;20;2788819;-49
2023/07/21 03:15:11;;;;;;;;;10.00;10.00;;;;;18.37;79.88;99303.78;6277784;20;3499230;-48
2023/07/21 03:17:39;;;;;;;;;10.00;10.00;;;;;18.32;81.15;99303.38;6311824;20;3504558;-52
2023/07/21 03:20:12;;;;;;;;;12.00;12.00;;;;;18.32;80.19;99306.94;6310228;20;3509693;-48
2023/07/21 03:22:39;;;;;;;;;8.00;8.00;;;;;18.40;80.46;99317.94;6320919;20;2750290;-54
2023/07/21 03:25:09;;;;;;;;;11.33;10.67;;;;;18.39;80.42;99318.06;6280110;20;3521148;-50
2023/07/21 03:27:38;;;;;;;;;10.00;10.00;;;;;18.49;79.48;99323.44;6315606;20;2786775;-47
2023/07/21 03:30:09;;;;;;;;;10.00;10.00;;;;;18.45;79.50;99316.59;6278559;20;3518361;-52
2023/07/21 03:32:38;;;;;;;;;11.00;10.50;;;;;18.43;79.61;99309.47;6315717;20;2786965;-51
2023/07/21 03:35:06;;;;;;;;;9.00;9.00;;;;;18.65;78.66;99308.13;6285759;20;2753412;-49
2023/07/21 03:37:36;;;;;;;;;11.33;10.33;;;;;18.73;78.26;99304.66;6277406;20;3550327;-50
2023/07/21 03:40:06;;;;;;;;;12.00;11.67;;;;;18.82;77.90;99305.59;6312719;20;2808662;-49
2023/07/21 03:42:35;;;;;;;;;9.67;9.67;;;;;18.77;79.44;99305.22;6312531;20;2780497;-47
2023/07/21 03:45:04;;;;;;;;;10.00;10.00;;;;;18.62;80.31;99303.03;6313465;20;2789861;-52
2023/07/21 03:47:32;;;;;;;;;11.00;9.00;;;;;18.78;80.69;99312.38;6286833;20;2778421;-53
2023/07/21 03:50:02;;;;;;;;;10.67;9.67;;;;;18.60;81.65;99320.50;6279936;20;2781592;-51
2023/07/21 03:52:30;;;;;;;;;12.33;11.00;;;;;18.38;82.97;99313.66;6312600;20;3540938;-49
2023/07/21 03:54:58;;;;;;;;;11.50;11.00;;;;;18.56;82.87;99309.09;6311044;20;2791025;-54
2023/07/21 03:57:25;;;;;;;;;11.00;9.00;;;;;18.49;83.05;99304.41;6281078;20;2774336;-51
2023/07/21 03:59:54;;;;;;;;;11.67;10.67;;;;;18.43;83.37;99304.03;6279585;20;3523207;-48
2023/07/21 04:02:23;;;;;;;;;6.60;6.60;;;;;18.65;82.20;99308.13;6335418;20;2740932;-51
2023/07/21 04:04:51;;;;;;;;;11.33;11.00;;;;;18.51;83.23;99305.97;6307296;20;3508661;-51
2023/07/21 04:07:21;;;;;;;;;13.00;10.00;;;;;18.61;83.30;99293.13;6305410;20;3512837;-52
2023/07/21 04:09:49;;;;;;;;;13.00;12.00;;;;;18.46;83.57;99293.81;6306281;20;3524233;-50
2023/07/21 04:12:17;;;;;;;;;12.00;12.00;;;;;18.42;84.17;99296.00;6306138;20;3522172;-49
2023/07/21 04:14:45;;;;;;;;;14.33;12.00;;;;;18.38;84.89;99303.63;6304082;20;3516041;-47
2023/07/21 04:17:14;;;;;;;;;13.00;13.00;;;;;18.54;84.49;99305.66;6275719;20;2792487;-47
2023/07/21 04:19:41;;;;;;;;;13.50;12.50;;;;;18.53;84.74;99314.81;6309490;20;2483722;-49
2023/07/21 04:22:09;;;;;;;;;11.67;11.67;;;;;18.72;84.02;99304.78;6279413;20;3513819;-51
2023/07/21 04:24:37;;;;;;;;;13.00;12.00;;;;;18.83;83.41;99301.88;6276897;20;3522263;-50
2023/07/21 04:27:06;;;;;;;;;13.00;12.00;;;;;19.03;83.87;99310.69;6304705;20;3520389;-48
2023/07/21 04:29:33;;;;;;;;;14.00;14.00;;;;;18.94;83.92;99298.91;6306550;20;2487802;-52
2023/07/21 04:32:03;;;;;;;;;14.50;14.00;;;;;19.19;82.95;99293.63;6276892;20;2485788;-49
2023/07/21 04:34:32;;;;;;;;;16.00;14.00;;;;;19.39;82.91;99295.16;6282686;20;3536795;-55
2023/07/21 04:37:00;;;;;;;;;10.67;10.67;;;;;19.46;82.44;99293.50;6307283;20;3518005;-53
2023/07/21 04:39:28;;;;;;;;;10.33;10.33;;;;;19.41;83.14;99293.13;6304479;20;3504433;-54
2023/07/21 04:41:55;;;;;;;;;14.00;13.00;;;;;19.51;83.03;99296.59;6312362;20;2483625;-50
2023/07/21 04:44:23;;;;;;;;;13.33;13.33;;;;;19.79;83.55;99307.31;6277055;20;3537748;-51
2023/07/21 04:46:51;;;;;;;;;15.00;15.00;;;;;19.98;82.06;99305.34;6276001;20;2494169;-52
2023/07/21 04:49:19;;;;;;;;;13.00;13.00;;;;;20.06;81.57;99308.09;6279676;20;3533654;-53
2023/07/21 04:51:47;;;;;;;;;13.33;13.00;;;;;20.13;82.62;99309.16;6277127;20;3527453;-53
2023/07/21 04:54:15;;;;;;;;;17.00;14.00;;;;;20.25;81.47;99302.38;6276847;20;2483782;-49
2023/07/21 04:56:44;;;;;;;;;16.33;16.00;;;;;19.92;83.28;99313.16;6308399;20;3560788;-50
2023/07/21 04:59:13;;;;;;;;;15.67;14.33;;;;;20.01;83.67;99307.75;6272410;20;2483615;-53
2023/07/21 05:01:42;;;;;;;;;11.67;11.00;;;;;20.26;82.00;99308.69;6306960;20;3528525;-52
2023/07/21 05:04:10;;;;;;;;;14.50;14.50;;;;;20.18;82.28;99307.63;6281288;20;2815156;-50
2023/07/21 05:06:38;;;;;;;;;14.00;14.00;;;;;20.38;82.27;99310.94;6281657;20;2492037;-48
2023/07/21 05:09:06;;;;;;;;;16.50;15.00;;;;;20.28;81.01;99310.22;6283622;20;2819053;-47
2023/07/21 05:11:34;;;;;;;;;17.00;17.00;;;;;20.30;82.38;99310.03;6281231;20;2820045;-47
2023/07/21 05:14:05;;;;;;;;;15.00;15.00;;;;;20.32;81.24;99308.88;6285548;20;2811744;-47
2023/07/21 05:16:37;;;;;;;;;14.50;14.50;;;;;20.32;81.19;99314.31;6283501;20;2817100;-52
2023/07/21 05:19:05;;;;;;;;;15.33;14.33;;;;;20.12;81.28;99307.47;6282587;20;2485731;-49
2023/07/21 05:21:33;;;;;;;;;11.67;10.67;;;;;20.43;80.69;99306.84;6312103;20;3511689;-49
2023/07/21 05:24:02;;;;;;;;;16.50;15.00;;;;;20.58;80.53;99306.06;6282012;20;2815088;-52
2023/07/21 05:26:35;;;;;;;;;16.50;16.00;;;;;20.62;79.99;99309.31;6283109;20;2821130;-49
2023/07/21 05:29:04;;;;;;;;;16.33;16.33;;;;;20.86;79.53;99311.22;6282320;20;2492013;-48
2023/07/21 05:31:33;;;;;;;;;17.00;14.33;;;;;20.78;79.65;99309.34;6315027;20;2483652;-47
2023/07/21 05:34:01;;;;;;;;;15.00;14.50;;;;;20.88;78.77;99306.44;6313746;20;2483632;-53
2023/07/21 05:36:30;;;;;;;;;16.00;15.00;;;;;21.10;77.77;99306.78;6282965;20;2819186;-48
2023/07/21 05:38:58;;;;;;;;;19.00;15.50;;;;;21.32;78.89;99318.88;6286661;20;2822302;-49
2023/07/21 05:41:26;;;;;;;;;16.00;16.00;;;;;21.55;76.25;99328.09;6288719;20;3551388;-48
2023/07/21 05:43:54;;;;;;;;;14.50;14.50;;;;;21.63;75.68;99330.78;6316964;20;2811785;-52
2023/07/21 05:46:22;;;;;;;;;16.00;15.00;;;;;21.41;75.96;99331.53;6286466;20;2823193;-47
2023/07/21 05:48:51;;;;;;;;;19.50;17.50;;;;;21.27;76.10;99331.19;6284783;20;2831550;-48
2023/07/21 05:51:19;;;;;;;;;15.00;15.00;;;;;21.07;77.40;99332.53;6286812;20;3523221;-52
2023/07/21 05:53:47;;;;;;;;;17.33;14.67;;;;;21.12;78.56;99326.59;6317307;20;2487828;-50
2023/07/21 05:56:15;;;;;;;;;14.00;14.00;;;;;21.31;77.82;99315.28;6314258;20;2812906;-51
2023/07/21 05:58:44;;;;;;;;;13.50;13.50;;;;;21.43;76.82;99324.88;6284329;20;2795039;-46
2023/07/21 06:01:12;;;;;;;;;16.00;14.50;;;;;21.74;75.53;99326.84;6283761;20;2807579;-49
2023/07/21 06:03:40;;;;;;;;;14.00;14.00;;;;;21.65;76.46;99333.38;6282935;20;3550310;-49
2023/07/21 06:06:09;;;;;;;;;15.00;13.00;;;;;21.62;75.74;99318.16;6285422;20;2799340;-51
2023/07/21 06:08:37;;;;;;;;;14.00;14.00;;;;;21.93;74.01;99314.63;6283447;20;2810803;-53
2023/07/21 06:11:06;;;;;;;;;14.00;14.00;;;;;21.95;74.79;99309.84;6283972;20;3539841;-49
2023/07/21 06:13:34;;;;;;;;;16.00;15.00;;;;;21.85;75.52;99303.75;6281577;20;3548138;-51
2023/07/21 06:16:02;;;;;;;;;15.50;15.50;;;;;21.93;75.00;99303.69;6283107;20;2822151;-51
2023/07/21 06:18:32;;;;;;;;;16.50;15.50;;;;;21.62;74.60;99312.72;6282422;20;2818148;-50
2023/07/21 06:21:03;;;;;;;;;15.50;15.50;;;;;21.65;76.38;99317.81;6282773;20;2807801;-50
2023/07/21 06:23:31;;;;;;;;;16.33;15.00;;;;;21.75;75.88;99316.75;6283793;20;2483744;-52
2023/07/21 06:25:59;;;;;;;;;15.00;14.33;;;;;21.97;74.27;99323.34;6317124;20;3540921;-51
2023/07/21 06:28:28;;;;;;;;;16.00;15.00;;;;;21.94;75.08;99326.44;6313387;20;2823270;-52
2023/07/21 06:30:56;;;;;;;;;14.50;14.50;;;;;21.58;75.15;99322.25;6283160;20;2817023;-49
2023/07/21 06:33:24;;;;;;;;;13.00;13.00;;;;;21.69;73.75;99316.41;6282754;20;2805522;-49
2023/07/21 06:35:54;;;;;;;;;14.33;14.33;;;;;21.98;74.24;99314.13;6286856;20;3546174;-50
2023/07/21 06:38:23;;;;;;;;;15.33;15.00;;;;;21.94;74.50;99305.44;6315368;20;3541967;-52
2023/07/21 06:40:51;;;;;;;;;15.33;15.33;;;;;22.09;73.75;99300.03;6316902;20;3550418;-52
2023/07/21 06:43:20;;;;;;;;;19.33;18.33;;;;;22.20;73.74;99296.13;6317233;20;3577361;-54
2023/07/21 06:45:48;;;;;;;;;14.00;14.00;;;;;22.30;73.03;99299.47;6281177;20;2805465;-49
2023/07/21 06:48:16;;;;;;;;;15.00;15.00;;;;;22.18;73.17;99311.81;6283178;20;2807701;-51
2023/07/21 06:50:44;;;;;;;;;20.00;16.00;;;;;22.01;74.45;99311.91;6283056;20;2836047;-52
2023/07/21 06:53:13;;;;;;;;;13.00;13.00;;;;;21.75;75.07;99311.28;6284145;20;2494046;-52
2023/07/21 06:55:41;;;;;;;;;16.00;16.00;;;;;21.98;75.89;99309.50;6315936;20;3557594;-52
2023/07/21 06:58:09;;;;;;;;;14.00;14.00;;;;;22.09;74.96;99314.59;6285611;20;3544092;-53
2023/07/21 07:00:37;;;;;;;;;16.67;16.67;;;;;21.90;75.03;99315.00;6316098;20;3556528;-50
2023/07/21 07:03:05;;;;;;;;;17.67;16.67;;;;;22.07;74.74;99316.66;6283243;20;3566929;-51
2023/07/21 07:05:34;;;;;;;;;17.33;16.33;;;;;22.00;75.85;99326.56;6316318;20;3561758;-52
2023/07/21 07:08:02;;;;;;;;;17.67;16.00;;;;;21.93;76.33;99322.84;6284805;20;3567363;-52
2023/07/21 07:10:30;;;;;;;;;15.00;15.00;;;;;22.09;76.43;99324.66;6281023;20;2813857;-55
2023/07/21 07:12:58;;;;;;;;;15.00;13.33;;;;;21.82;77.57;99328.69;6286472;20;3536675;-56
2023/07/21 07:15:26;;;;;;;;;15.00;15.00;;;;;21.85;77.43;99334.69;6316408;20;3534758;-54
2023/07/21 07:17:55;;;;;;;;;14.00;14.00;;;;;21.81;77.44;99335.19;6314816;20;3538804;-52
2023/07/21 07:20:23;;;;;;;;;18.67;17.33;;;;;21.77;75.74;99325.63;6316373;20;3570234;-50
2023/07/21 07:22:51;;;;;;;;;14.67;14.67;;;;;21.69;75.92;99330.09;6284507;20;3538973;-52
2023/07/21 07:25:23;;;;;;;;;13.50;13.50;;;;;21.74;77.12;99334.19;6312127;20;2814857;-54
2023/07/21 07:27:53;;;;;;;;;15.00;14.50;;;;;21.69;77.14;99337.44;6279477;20;2817127;-53
2023/07/21 07:30:21;;;;;;;;;16.00;14.67;;;;;21.71;77.48;99332.66;6278477;20;3550277;-54
2023/07/21 07:32:49;;;;;;;;;15.00;15.00;;;;;21.67;76.93;99345.81;6308039;20;2821108;-53
2023/07/21 07:35:17;;;;;;;;;14.00;14.00;;;;;21.86;76.84;99335.53;6280096;20;3545050;-52
2023/07/21 07:37:45;;;;;;;;;14.00;14.00;;;;;22.03;76.04;99330.84;6279405;20;2483602;-48
2023/07/21 07:40:13;;;;;;;;;13.00;13.00;;;;;21.59;76.42;99332.19;6316115;20;3534652;-53
2023/07/21 07:42:42;;;;;;;;;16.00;15.67;;;;;21.76;76.79;99327.53;6310216;20;2483802;-53
2023/07/21 07:45:10;;;;;;;;;14.67;14.67;;;;;21.95;75.06;99323.53;6311150;20;2483739;-55
2023/07/21 07:47:38;;;;;;;;;13.00;13.00;;;;;22.20;74.73;99310.66;6310193;20;2797174;-51
2023/07/21 07:50:09;;;;;;;;;15.00;13.00;;;;;22.40;74.95;99315.66;6278520;20;2799349;-50
2023/07/21 07:52:39;;;;;;;;;15.00;15.00;;;;;22.56;72.85;99313.69;6280461;20;2483650;-50
2023/07/21 07:55:09;;;;;;;;;14.00;14.00;;;;;23.09;71.69;99304.75;6311713;20;2483689;-48
2023/07/21 07:57:37;;;;;;;;;15.67;13.33;;;;;23.41;69.24;99315.41;6310417;20;2487890;-48
2023/07/21 08:00:08;;;;;;;;;15.33;12.00;;;;;23.57;69.67;99313.56;6315845;20;2485765;-49
2023/07/21 08:02:36;;;;;;;;;14.33;13.00;;;;;24.65;65.19;99318.41;6313404;20;2483719;-49
2023/07/21 08:05:04;;;;;;;;;13.00;13.00;;;;;25.09;62.78;99320.13;6311853;20;3525281;-53
2023/07/21 08:07:32;;;;;;;;;15.67;14.00;;;;;24.20;65.56;99314.91;6312575;20;3547296;-51
2023/07/21 08:10:03;;;;;;;;;12.67;12.00;;;;;25.46;62.69;99315.38;6313293;20;3534770;-53
2023/07/21 08:12:31;;;;;;;;;14.00;14.00;;;;;25.41;61.07;99312.38;6314548;20;3544106;-54
2023/07/21 08:14:59;;;;;;;;;14.00;14.00;;;;;25.01;60.91;99312.00;6316317;20;3525189;-52
2023/07/21 08:17:27;;;;;;;;;16.33;13.67;;;;;25.03;61.45;99303.56;6310857;20;2483593;-48
2023/07/21 08:19:55;;;;;;;;;14.67;14.67;;;;;24.97;60.57;99303.31;6312054;20;3544019;-49
2023/07/21 08:22:23;;;;;;;;;13.67;13.67;;;;;25.13;61.54;99302.19;6310714;20;3526440;-50
2023/07/21 08:24:52;;;;;;;;;14.00;14.00;;;;;25.08;63.08;99295.59;6311597;20;2791146;-52
2023/07/21 08:27:20;;;;;;;;;8.00;8.00;;;;;24.94;62.71;99300.13;6273487;20;3470244;-51
2023/07/21 08:29:48;;;;;;;;;16.00;16.00;;;;;25.26;63.14;99308.88;6304055;20;3556747;-51
2023/07/21 08:32:16;;;;;;;;;14.33;13.00;;;;;24.71;62.54;99303.88;6282409;20;2483724;-49
2023/07/21 08:34:45;;;;;;;;;12.33;12.33;;;;;24.39;64.42;99307.09;6312169;20;2483627;-47
2023/07/21 08:37:13;;;;;;;;;14.67;13.33;;;;;24.36;64.81;99302.84;6309531;20;2483578;-49
2023/07/21 08:39:42;;;;;;;;;16.00;16.00;;;;;24.52;64.96;99302.63;6308092;20;2821286;-50
2023/07/21 08:42:10;;;;;;;;;13.67;12.67;;;;;24.51;63.68;99316.53;6279077;20;3530469;-52
2023/07/21 08:44:39;;;;;;;;;12.33;11.00;;;;;24.48;64.22;99323.28;6279547;20;2490413;-47
2023/07/21 08:47:08;;;;;;;;;15.33;14.00;;;;;24.35;64.45;99320.34;6311082;20;3532577;-49
2023/07/21 08:49:39;;;;;;;;;14.33;14.33;;;;;24.18;66.29;99314.22;6315412;20;3542006;-51
2023/07/21 08:52:07;;;;;;;;;14.00;14.00;;;;;24.20;66.61;99312.16;6312797;20;2483622;-49
2023/07/21 08:54:35;;;;;;;;;13.33;13.00;;;;;24.23;67.09;99317.25;6316157;20;3528408;-53
2023/07/21 08:57:06;;;;;;;;;16.00;14.38;;;;;23.71;67.90;99309.13;6333584;20;3553449;-49
2023/07/21 08:59:34;;;;;;;;;15.33;13.67;;;;;23.59;69.45;99305.97;6273030;20;3546163;-50
2023/07/21 09:02:02;;;;;;;;;16.33;15.33;;;;;24.17;67.38;99304.31;6309863;20;3553427;-50
2023/07/21 09:04:31;;;;;;;;;34.00;30.00;;;;;24.55;66.17;99306.88;6279382;20;3592134;-48
2023/07/21 09:07:01;;;;;;;;;15.50;13.50;;;;;24.74;64.72;99308.97;6275653;20;2814850;-50
2023/07/21 09:09:33;;;;;;;;;17.00;15.00;;;;;24.68;66.72;99320.75;6290375;20;2828398;-55
2023/07/21 09:12:07;;;;;;;;;14.67;14.67;;;;;24.54;66.88;99321.66;6277855;20;2483669;-54
2023/07/21 09:14:44;;;;;;;;;14.33;12.33;;;;;24.68;65.62;99308.94;6313174;20;3548281;-53
2023/07/21 09:17:13;;;;;;;;;14.33;13.33;;;;;24.85;66.36;99309.50;6310501;20;2483677;-52
2023/07/21 09:19:47;;;;;;;;;12.33;12.00;;;;;25.16;63.92;99301.81;6308318;20;3532712;-49
2023/07/21 09:22:24;;;;;;;;;15.50;14.50;;;;;25.24;64.24;99300.81;6278696;20;2805494;-49
2023/07/21 09:24:52;;;;;;;;;13.67;13.33;;;;;25.52;62.94;99300.00;6277429;20;2483777;-46
2023/07/21 09:27:20;;;;;;;;;14.00;13.00;;;;;25.42;62.75;99297.59;6306940;20;3528556;-46
2023/07/21 09:29:48;;;;;;;;;14.00;14.00;;;;;25.34;63.02;99295.00;6308449;20;2483598;-49
2023/07/21 09:32:19;;;;;;;;;14.00;12.00;;;;;25.89;61.97;99285.03;6306057;20;2806554;-48
2023/07/21 09:34:57;;;;;;;;;11.00;10.00;;;;;26.82;60.66;99293.63;6278779;20;2483755;-48
2023/07/21 09:37:28;;;;;;;;;16.33;14.67;;;;;27.28;58.57;99298.34;6305847;20;3545068;-49
2023/07/21 09:40:06;;;;;;;;;12.33;12.00;;;;;27.88;56.24;99309.31;6303173;20;3532759;-51
2023/07/21 09:42:34;;;;;;;;;17.00;12.33;;;;;26.80;57.87;99301.22;6306456;20;3548179;-49
2023/07/21 09:45:03;;;;;;;;;12.00;12.00;;;;;26.75;58.79;99291.91;6306248;20;3500445;-50
2023/07/21 09:47:31;;;;;;;;;12.33;12.33;;;;;26.53;59.05;99274.72;6313669;20;3539859;-48
2023/07/21 09:50:00;;;;;;;;;15.00;15.00;;;;;26.61;59.27;99280.03;6309041;20;2811877;-53
2023/07/21 09:52:28;;;;;;;;;14.00;12.67;;;;;26.49;60.21;99277.84;6286877;20;3539839;-53
2023/07/21 09:55:10;;;;;;;;;11.00;11.00;;;;;25.76;61.80;99276.66;6314189;20;2483684;-53
2023/07/21 09:57:46;;;;;;;;;12.67;12.67;;;;;25.82;61.51;99281.34;6307406;20;2483695;-48
2023/07/21 10:00:17;;;;;;;;;13.00;12.00;;;;;25.73;62.63;99272.41;6315266;20;2483769;-50
2023/07/21 10:02:49;;;;;;;;;13.00;13.00;;;;;25.07;64.38;99275.50;6316278;20;2483618;-48
2023/07/21 10:05:18;;;;;;;;;15.00;13.33;;;;;25.32;63.98;99275.09;6316609;20;2483605;-52
2023/07/21 10:07:51;;;;;;;;;10.00;10.00;;;;;25.34;64.17;99278.50;6318250;20;3509744;-53
2023/07/21 10:10:20;;;;;;;;;13.67;13.67;;;;;25.18;65.35;99287.88;6309995;20;2483840;-47
2023/07/21 10:12:50;;;;;;;;;13.67;12.33;;;;;25.31;64.68;99287.16;6311473;20;2483566;-51
2023/07/21 10:15:27;;;;;;;;;12.67;11.67;;;;;25.28;65.98;99290.31;6312569;20;3523213;-49
2023/07/21 10:18:03;;;;;;;;;13.00;13.00;;;;;25.16;66.44;99282.56;6314000;20;2483692;-50
2023/07/21 10:20:50;;;;;;;;;12.00;12.00;;;;;25.21;65.31;99283.91;6313286;20;3539953;-54
2023/07/21 10:23:24;;;;;;;;;11.33;10.33;;;;;25.15;66.77;99277.25;6316731;20;2487739;-52
2023/07/21 10:25:52;;;;;;;;;12.00;11.00;;;;;25.20;64.88;99274.81;6315191;20;3502438;-49
2023/07/21 10:28:44;;;;;;;;;12.00;10.67;;;;;25.28;66.54;99271.06;6317312;20;3510673;-49
2023/07/21 10:31:24;;;;;;;;;8.33;8.33;;;;;24.98;66.52;99262.94;6312902;20;3465950;-50
2023/07/21 10:34:06;;;;;;;;;15.00;13.50;;;;;25.30;66.15;99269.78;6315259;20;2807738;-50
2023/07/21 10:36:56;;;;;;;;;15.00;12.67;;;;;25.35;65.76;99263.69;6281545;20;2490436;-51
2023/07/21 10:39:33;;;;;;;;;12.33;12.33;;;;;25.22;66.01;99272.69;6317283;20;3531556;-54
2023/07/21 10:42:04;;;;;;;;;14.00;11.33;;;;;25.22;66.37;99271.84;6321463;20;2773309;-52
2023/07/21 10:44:46;;;;;;;;;11.67;11.67;;;;;25.39;67.45;99265.00;6314601;20;3520207;-46
2023/07/21 10:47:17;;;;;;;;;11.67;9.67;;;;;25.79;66.22;99262.50;6279869;20;3492197;-45
2023/07/21 10:49:47;;;;;;;;;13.33;13.33;;;;;26.24;62.82;99258.28;6316855;20;3531567;-50
2023/07/21 10:52:16;;;;;;;;;12.00;11.00;;;;;26.37;62.17;99262.13;6319328;20;3509688;-47
2023/07/21 10:54:44;;;;;;;;;10.67;10.67;;;;;27.26;60.05;99267.38;6316265;20;2483819;-44
2023/07/21 10:57:12;;;;;;;;;12.67;11.33;;;;;27.04;59.37;99268.63;6316408;20;3528508;-43
2023/07/21 10:59:42;;;;;;;;;13.00;10.00;;;;;26.87;59.81;99266.28;6311947;20;3508260;-43
2023/07/21 11:02:11;;;;;;;;;10.33;10.33;;;;;26.79;60.44;99260.13;6317136;20;2780566;-44
2023/07/21 11:04:40;;;;;;;;;13.67;11.00;;;;;26.75;61.13;99254.19;6314104;20;3515849;-43
2023/07/21 11:07:09;;;;;;;;;11.67;11.00;;;;;26.33;60.93;99256.22;6313889;20;2490283;-43
2023/07/21 11:09:43;;;;;;;;;12.00;10.00;;;;;26.01;61.99;99258.63;6317668;20;2483603;-44
2023/07/21 11:12:12;;;;;;;;;11.67;11.67;;;;;26.06;60.99;99258.84;6317552;20;3501358;-44
2023/07/21 11:14:40;;;;;;;;;11.50;11.50;;;;;25.69;62.38;99248.25;6314918;20;2803485;-44